This is the latest recevied weather packets stored in our database for station/object W4TJP. If no packets are shown the sender has not sent any weather packets the latest 10 day(s).
| Time | Temp. | Humidity | Pressure | Rain* | Wind** | Luminosity | Snow |
|---|---|---|---|---|---|---|---|
| 1777417112 | 21.67° C | 83% | 1014.8 hPa | 0 mm | - | 48 W/m² | - |
| 1777416807 | 21.67° C | 84% | 1014.4 hPa | 0 mm | - | 54 W/m² | - |
| 1777416503 | 21.67° C | 84% | 1014.3 hPa | 0 mm | - | 58 W/m² | - |
| 1777416200 | 22.22° C | 85% | 1014.1 hPa | 0 mm | - | 59 W/m² | - |
| 1777415899 | 21.67° C | 84% | 1013.7 hPa | 0 mm | - | 64 W/m² | - |
| 1777415595 | 22.22° C | 83% | 1014.1 hPa | 0 mm | - | 72 W/m² | - |
| 1777415291 | 22.22° C | 81% | 1014.3 hPa | 0 mm | - | 79 W/m² | - |
| 1777414986 | 22.22° C | 81% | 1014.5 hPa | 0 mm | - | 82 W/m² | - |
| 1777414680 | 22.78° C | 80% | 1014.8 hPa | 0 mm | - | 83 W/m² | - |
| 1777414376 | 22.78° C | 80% | 1015.3 hPa | 0 mm | - | 91 W/m² | - |
| 1777414076 | 22.78° C | 79% | 1015.2 hPa | 0 mm | - | 101 W/m² | - |
| 1777413776 | 22.78° C | 79% | 1015.3 hPa | 0 mm | - | 107 W/m² | - |
| 1777413472 | 23.33° C | 79% | 1015.3 hPa | 0 mm | - | 115 W/m² | - |
| 1777413168 | 23.33° C | 78% | 1015.6 hPa | 0 mm | - | 122 W/m² | - |
| 1777412864 | 23.89° C | 77% | 1015.4 hPa | 0 mm | - | 131 W/m² | - |
| 1777412563 | 23.89° C | 77% | 1015.2 hPa | 0 mm | - | 149 W/m² | - |
| 1777412261 | 23.89° C | 76% | 1015.1 hPa | 0 mm | - | 214 W/m² | - |
| 1777411957 | 24.44° C | 74% | 1014.8 hPa | 0 mm | - | 133 W/m² | - |
| 1777411656 | 25° C | 73% | 1014.9 hPa | 0 mm | - | 293 W/m² | - |
| 1777411351 | 25° C | 73% | 1014.6 hPa | 0 mm | - | 357 W/m² | - |
| 1777411050 | 25° C | 71% | 1014.7 hPa | 0 mm | - | 430 W/m² | - |
| 1777410745 | 25° C | 73% | 1014.6 hPa | 0 mm | - | 420 W/m² | - |
| 1777410439 | 25° C | 72% | 1014.7 hPa | 0 mm | - | 158 W/m² | - |
| 1777410138 | 24.44° C | 75% | 1014.7 hPa | 0 mm | - | 560 W/m² | - |
| 1777409833 | 25.56° C | 72% | 1015.2 hPa | 0 mm | - | 129 W/m² | - |
* Rain latest hour (hover to see other rain measurements)
** Current wind speed in m/s (hover to see current wind gust speed)